createdAt,value
2018-05-19T00:00:15.005Z,0
2018-05-19T00:00:55.419Z,0
2018-05-19T00:01:35.835Z,0
2018-05-19T00:02:16.237Z,0
2018-05-19T00:02:56.813Z,0
2018-05-19T00:03:37.136Z,0
2018-05-19T00:04:17.488Z,0
2018-05-19T00:04:57.934Z,0
2018-05-19T00:05:38.375Z,0
2018-05-19T00:06:18.790Z,0
2018-05-19T00:06:59.334Z,0
2018-05-19T00:07:39.691Z,0
2018-05-19T00:08:20.162Z,0
2018-05-19T00:09:00.574Z,0
2018-05-19T00:09:40.881Z,0
2018-05-19T00:10:21.312Z,0
2018-05-19T00:11:01.843Z,0
2018-05-19T00:11:42.250Z,0
2018-05-19T00:12:22.667Z,0
2018-05-19T00:13:03.096Z,0
2018-05-19T00:13:43.507Z,0
2018-05-19T00:14:23.884Z,0
2018-05-19T00:16:42.714Z,0
2018-05-19T00:17:23.065Z,0
2018-05-19T00:18:03.457Z,0
2018-05-19T00:18:43.872Z,0
2018-05-19T00:19:24.314Z,0
2018-05-19T00:20:04.933Z,0
2018-05-19T00:20:45.762Z,0
2018-05-19T00:21:25.796Z,0
2018-05-19T00:22:06.165Z,0
2018-05-19T00:22:46.574Z,0
2018-05-19T00:23:26.958Z,0
2018-05-19T00:24:07.402Z,0
2018-05-19T00:24:47.818Z,0
2018-05-19T00:25:28.219Z,0
2018-05-19T00:26:08.633Z,0
2018-05-19T00:26:49.067Z,0
2018-05-19T00:27:29.498Z,0
2018-05-19T00:28:10.159Z,0
2018-05-19T00:28:50.700Z,0
2018-05-19T00:29:31.141Z,0
2018-05-19T00:30:11.519Z,0
2018-05-19T00:30:51.923Z,0
2018-05-19T00:31:32.334Z,0
2018-05-19T00:32:12.727Z,0
2018-05-19T00:32:53.182Z,0
2018-05-19T00:33:33.622Z,0
2018-05-19T00:34:14.013Z,0
2018-05-19T00:34:54.427Z,0
2018-05-19T00:35:34.816Z,0
2018-05-19T00:36:15.251Z,0
2018-05-19T00:36:55.733Z,0
2018-05-19T00:37:36.019Z,0
2018-05-19T00:38:16.414Z,0
2018-05-19T00:38:56.862Z,0
2018-05-19T00:39:37.266Z,0
2018-05-19T00:40:17.651Z,0
2018-05-19T00:40:58.059Z,0
2018-05-19T00:41:38.539Z,0
2018-05-19T00:42:18.958Z,0
2018-05-19T00:42:59.356Z,0
2018-05-19T00:43:39.793Z,0
2018-05-19T00:44:20.185Z,0
2018-05-19T00:45:00.632Z,0
2018-05-19T00:47:30.922Z,0
2018-05-19T00:48:10.756Z,0
2018-05-19T00:48:51.183Z,0
2018-05-19T00:49:31.611Z,0
2018-05-19T00:50:11.976Z,0
2018-05-19T00:50:52.408Z,0
2018-05-19T00:51:32.802Z,0
2018-05-19T00:53:50.565Z,0
2018-05-19T00:54:30.847Z,0
2018-05-19T00:55:11.297Z,0
2018-05-19T00:55:51.699Z,0
2018-05-19T00:56:32.120Z,0
2018-05-19T00:57:12.539Z,0
2018-05-19T00:57:52.916Z,0
2018-05-19T00:58:33.321Z,0
2018-05-19T00:59:13.715Z,0
2018-05-19T00:59:54.136Z,0
2018-05-19T01:00:34.602Z,0
2018-05-19T01:01:15.005Z,0
2018-05-19T01:01:55.421Z,0
2018-05-19T01:02:35.832Z,0
2018-05-19T01:03:16.233Z,0
2018-05-19T01:03:56.622Z,0
2018-05-19T01:04:37.052Z,0
2018-05-19T01:05:17.439Z,0
2018-05-19T01:05:57.848Z,0
2018-05-19T01:06:38.230Z,0
2018-05-19T01:07:18.658Z,0
2018-05-19T01:07:59.056Z,0
2018-05-19T01:08:39.487Z,0
2018-05-19T01:09:19.912Z,0
2018-05-19T01:10:00.332Z,0
2018-05-19T01:10:40.792Z,0
2018-05-19T01:11:21.206Z,0
2018-05-19T01:12:01.596Z,0
2018-05-19T01:12:42.052Z,0
2018-05-19T01:13:22.455Z,0
2018-05-19T01:14:02.836Z,0
2018-05-19T01:14:43.220Z,0
2018-05-19T01:15:23.648Z,0
2018-05-19T01:16:04.076Z,0
2018-05-19T01:16:44.520Z,0
2018-05-19T01:17:24.921Z,0
2018-05-19T01:18:05.334Z,0
2018-05-19T01:18:45.810Z,0
2018-05-19T01:19:26.135Z,0
2018-05-19T01:20:06.830Z,0
2018-05-19T01:20:47.057Z,0
2018-05-19T01:21:27.535Z,0
2018-05-19T01:22:07.911Z,0
2018-05-19T01:22:48.331Z,0
2018-05-19T01:23:29.056Z,0
2018-05-19T01:24:09.611Z,0
2018-05-19T01:24:49.886Z,0
2018-05-19T01:25:30.341Z,0
2018-05-19T01:26:10.771Z,0
2018-05-19T01:26:51.195Z,0
2018-05-19T01:27:31.579Z,0
2018-05-19T01:28:12.021Z,0
2018-05-19T01:30:24.841Z,0
2018-05-19T01:31:04.955Z,0
2018-05-19T01:31:45.362Z,0
2018-05-19T01:32:25.775Z,0
2018-05-19T01:33:06.204Z,0
2018-05-19T01:33:46.595Z,0
2018-05-19T01:34:27.044Z,0
2018-05-19T01:35:07.505Z,0
2018-05-19T01:35:47.941Z,0
2018-05-19T01:36:28.323Z,0
2018-05-19T01:37:08.711Z,0
2018-05-19T01:37:49.157Z,0
2018-05-19T01:38:29.591Z,0
2018-05-19T01:39:09.962Z,0
2018-05-19T01:39:50.404Z,0
2018-05-19T01:40:30.802Z,0
2018-05-19T01:41:11.220Z,0
2018-05-19T01:41:51.644Z,0
2018-05-19T01:42:32.066Z,0
2018-05-19T01:43:12.474Z,0
2018-05-19T01:43:52.947Z,0
2018-05-19T01:44:33.362Z,0
2018-05-19T01:45:13.763Z,0
2018-05-19T01:45:54.195Z,0
2018-05-19T01:46:34.597Z,0
2018-05-19T01:47:15.024Z,0
2018-05-19T01:47:55.438Z,0
2018-05-19T01:48:35.848Z,0
2018-05-19T01:49:16.238Z,0
2018-05-19T01:49:56.620Z,0
2018-05-19T01:50:37.048Z,0
2018-05-19T01:51:17.435Z,0
2018-05-19T01:51:57.907Z,0
2018-05-19T01:52:38.248Z,0
2018-05-19T01:53:18.662Z,0
2018-05-19T01:53:59.085Z,0
2018-05-19T01:54:39.485Z,0
2018-05-19T01:55:19.939Z,0
2018-05-19T01:56:00.334Z,0
2018-05-19T01:56:40.750Z,0
2018-05-19T01:57:21.123Z,0
2018-05-19T01:58:01.544Z,0
2018-05-19T01:58:41.968Z,0
2018-05-19T01:59:22.408Z,0
2018-05-19T02:00:02.831Z,0
2018-05-19T02:00:43.229Z,0
2018-05-19T02:01:23.636Z,0
2018-05-19T02:02:04.062Z,0
2018-05-19T02:02:44.516Z,0
2018-05-19T02:03:24.928Z,0
2018-05-19T02:04:05.356Z,0
2018-05-19T02:04:45.803Z,0
2018-05-19T02:05:26.255Z,0
2018-05-19T02:06:06.655Z,0
2018-05-19T02:06:47.033Z,0
2018-05-19T02:07:27.505Z,0
2018-05-19T02:08:07.956Z,0
2018-05-19T02:08:48.410Z,0
2018-05-19T02:09:28.813Z,0
2018-05-19T02:10:09.170Z,0
2018-05-19T02:10:49.586Z,0
2018-05-19T02:11:30.025Z,0
2018-05-19T02:12:10.475Z,0
2018-05-19T02:12:50.909Z,0
2018-05-19T02:13:31.298Z,0
2018-05-19T02:14:11.714Z,0
2018-05-19T02:14:52.163Z,0
2018-05-19T02:15:32.556Z,0
2018-05-19T02:16:12.979Z,0
2018-05-19T02:16:53.377Z,0
2018-05-19T02:17:33.778Z,0
2018-05-19T02:18:14.188Z,0
2018-05-19T02:18:54.623Z,0
2018-05-19T02:19:35.051Z,0
2018-05-19T02:20:15.445Z,0
2018-05-19T02:20:55.834Z,0
2018-05-19T02:21:36.282Z,0
2018-05-19T02:22:16.643Z,0
2018-05-19T02:22:57.047Z,0
2018-05-19T02:23:37.473Z,0
2018-05-19T02:24:17.883Z,0
2018-05-19T02:24:58.316Z,0
2018-05-19T02:25:38.749Z,0
2018-05-19T02:26:19.158Z,0
2018-05-19T02:26:59.547Z,0
2018-05-19T02:27:40.125Z,0
2018-05-19T02:28:20.443Z,0
2018-05-19T02:29:00.834Z,0
2018-05-19T02:29:41.251Z,0
2018-05-19T02:30:21.704Z,0
2018-05-19T02:31:02.095Z,0
2018-05-19T02:31:42.528Z,0
2018-05-19T02:32:22.896Z,0
2018-05-19T02:33:03.321Z,0
2018-05-19T02:33:43.719Z,0
2018-05-19T02:34:24.178Z,0
2018-05-19T02:35:04.564Z,0
2018-05-19T02:35:44.942Z,0
2018-05-19T02:36:25.381Z,0
2018-05-19T02:37:05.805Z,0
2018-05-19T02:37:46.156Z,0
2018-05-19T02:38:26.571Z,0
2018-05-19T02:39:07.034Z,0
2018-05-19T02:39:47.478Z,0
2018-05-19T02:40:27.939Z,0
2018-05-19T02:41:08.398Z,0
2018-05-19T02:41:48.745Z,0
2018-05-19T02:42:29.179Z,0
2018-05-19T02:43:09.579Z,0
2018-05-19T02:43:49.976Z,0
2018-05-19T02:44:30.402Z,0
2018-05-19T02:45:10.787Z,0
2018-05-19T02:45:51.208Z,0
2018-05-19T02:46:31.604Z,0
2018-05-19T02:47:12.093Z,0
2018-05-19T02:47:52.420Z,0
2018-05-19T02:48:32.822Z,0
2018-05-19T02:49:13.265Z,0
2018-05-19T02:49:53.652Z,0
2018-05-19T02:50:34.063Z,0
2018-05-19T02:51:14.513Z,0
2018-05-19T02:51:54.910Z,0
2018-05-19T02:52:35.301Z,0
2018-05-19T02:53:15.680Z,0
2018-05-19T02:53:56.072Z,0
2018-05-19T02:54:36.502Z,0
2018-05-19T02:55:16.910Z,0
2018-05-19T02:55:57.327Z,0
2018-05-19T02:56:37.772Z,0
2018-05-19T02:57:18.224Z,0
2018-05-19T02:57:58.578Z,0
2018-05-19T02:58:38.971Z,0
2018-05-19T02:59:19.432Z,0
2018-05-19T02:59:59.798Z,0
2018-05-19T03:00:40.195Z,0
2018-05-19T03:01:20.605Z,0
2018-05-19T03:02:00.986Z,0
2018-05-19T03:02:41.359Z,0
2018-05-19T03:03:21.854Z,0
2018-05-19T03:04:02.196Z,0
2018-05-19T03:04:42.613Z,0
2018-05-19T03:05:23.030Z,0
2018-05-19T03:06:03.442Z,0
2018-05-19T03:06:43.889Z,0
2018-05-19T03:07:24.303Z,0
2018-05-19T03:08:04.721Z,4
2018-05-19T03:08:45.141Z,4
2018-05-19T03:09:25.572Z,4
2018-05-19T03:10:06.010Z,0
2018-05-19T03:10:46.406Z,0
2018-05-19T03:11:26.819Z,4
2018-05-19T03:12:07.261Z,4
2018-05-19T03:12:47.709Z,4
2018-05-19T03:13:28.118Z,0
2018-05-19T03:14:08.539Z,4
2018-05-19T03:14:49.478Z,4
2018-05-19T03:15:29.581Z,8
2018-05-19T03:16:09.996Z,4
2018-05-19T03:16:50.403Z,4
2018-05-19T03:17:30.875Z,4
2018-05-19T03:18:11.247Z,4
2018-05-19T03:18:51.667Z,8
2018-05-19T03:19:32.171Z,8
2018-05-19T03:20:12.594Z,8
2018-05-19T03:20:53.013Z,8
2018-05-19T03:21:33.438Z,12
2018-05-19T03:22:13.814Z,8
2018-05-19T03:22:54.224Z,12
2018-05-19T03:23:34.689Z,12
2018-05-19T03:24:15.111Z,12
2018-05-19T03:24:55.759Z,12
2018-05-19T03:25:35.948Z,12
2018-05-19T03:26:16.396Z,16
2018-05-19T03:26:56.794Z,16
2018-05-19T03:28:56.955Z,24
2018-05-19T03:29:37.068Z,20
2018-05-19T03:30:17.734Z,24
2018-05-19T03:30:57.979Z,24
2018-05-19T03:31:38.349Z,24
2018-05-19T03:32:18.821Z,28
2018-05-19T03:32:59.224Z,32
2018-05-19T03:33:39.573Z,32
2018-05-19T03:34:20.009Z,36
2018-05-19T03:35:00.449Z,40
2018-05-19T03:35:40.921Z,40
2018-05-19T03:36:21.327Z,44
2018-05-19T03:37:01.757Z,48
2018-05-19T03:37:42.170Z,48
2018-05-19T03:38:22.581Z,48
2018-05-19T03:39:02.979Z,52
2018-05-19T03:39:43.349Z,56
2018-05-19T03:40:23.780Z,60
2018-05-19T03:41:04.192Z,64
2018-05-19T03:41:44.584Z,64
2018-05-19T03:42:24.986Z,68
2018-05-19T03:43:05.384Z,72
2018-05-19T03:43:45.833Z,76
2018-05-19T03:44:26.215Z,76
2018-05-19T03:45:06.786Z,84
2018-05-19T03:45:47.088Z,88
2018-05-19T03:46:27.506Z,92
2018-05-19T03:47:07.947Z,96
2018-05-19T03:47:48.348Z,100
2018-05-19T03:48:29.045Z,108
2018-05-19T03:49:09.379Z,112
2018-05-19T03:49:49.790Z,120
2018-05-19T03:50:30.221Z,124
2018-05-19T03:51:10.647Z,132
2018-05-19T03:51:51.078Z,136
2018-05-19T03:52:31.481Z,144
2018-05-19T03:53:11.971Z,152
2018-05-19T03:53:52.345Z,160
2018-05-19T03:54:32.651Z,168
2018-05-19T03:55:13.068Z,180
2018-05-19T03:55:53.503Z,188
2018-05-19T03:56:33.873Z,196
2018-05-19T03:57:14.293Z,204
2018-05-19T03:57:54.696Z,212
2018-05-19T03:58:35.103Z,224
2018-05-19T03:59:15.572Z,232
2018-05-19T03:59:56.015Z,240
2018-05-19T04:00:36.403Z,252
2018-05-19T04:01:16.859Z,264
2018-05-19T04:01:57.258Z,272
2018-05-19T04:02:37.635Z,288
2018-05-19T04:03:18.049Z,296
2018-05-19T04:42:55.844Z,1168
2018-05-19T04:43:37.743Z,1168
2018-05-19T04:44:18.102Z,1168
2018-05-19T04:44:58.553Z,1168
2018-05-19T04:45:38.942Z,1172
2018-05-19T04:46:19.393Z,1176
2018-05-19T04:46:59.755Z,1188
2018-05-19T04:47:40.185Z,1192
2018-05-19T04:48:20.638Z,1192
2018-05-19T04:49:01.038Z,1184
2018-05-19T04:49:41.363Z,1160
2018-05-19T04:50:21.807Z,1124
2018-05-19T04:51:02.197Z,1080
2018-05-19T04:51:42.679Z,1024
2018-05-19T04:54:03.434Z,896
2018-05-19T04:54:42.651Z,872
2018-05-19T04:55:23.061Z,848
2018-05-19T04:56:03.465Z,820
2018-05-19T04:56:43.872Z,772
2018-05-19T04:57:24.266Z,712
2018-05-19T04:58:04.657Z,656
2018-05-19T04:58:45.067Z,612
2018-05-19T04:59:25.476Z,580
2018-05-19T05:00:06.010Z,568
2018-05-19T05:00:46.817Z,560
2018-05-19T05:01:27.256Z,548
2018-05-19T05:02:07.662Z,540
2018-05-19T05:02:48.069Z,536
2018-05-19T05:03:28.642Z,528
2018-05-19T05:04:09.073Z,528
2018-05-19T05:04:49.368Z,528
2018-05-19T05:05:29.811Z,528
2018-05-19T05:06:10.222Z,540
2018-05-19T05:06:50.538Z,560
2018-05-19T05:07:30.962Z,584
2018-05-19T05:08:11.360Z,620
2018-05-19T05:08:51.809Z,656
2018-05-19T05:09:32.245Z,684
2018-05-19T05:10:12.641Z,700
2018-05-19T05:10:53.066Z,724
2018-05-19T05:11:33.474Z,760
2018-05-19T05:12:13.870Z,800
2018-05-19T05:12:54.267Z,824
2018-05-19T05:13:34.725Z,848
2018-05-19T05:14:15.148Z,872
2018-05-19T05:14:55.574Z,916
2018-05-19T05:17:29.095Z,1120
2018-05-19T05:18:09.182Z,1148
2018-05-19T05:18:49.599Z,1172
2018-05-19T05:19:30.020Z,1184
2018-05-19T05:20:10.444Z,1180
2018-05-19T05:20:50.827Z,1164
2018-05-19T05:21:31.253Z,1144
2018-05-19T05:22:11.677Z,1144
2018-05-19T05:22:52.103Z,1172
2018-05-19T05:23:32.706Z,1236
2018-05-19T05:24:12.913Z,1452
2018-05-19T05:24:53.275Z,2768
2018-05-19T05:25:33.699Z,2768
2018-05-19T05:26:14.134Z,1756
2018-05-19T05:26:54.506Z,1672
2018-05-19T05:27:34.941Z,1680
2018-05-19T05:28:15.342Z,1760
2018-05-19T05:28:55.725Z,1836
2018-05-19T05:30:53.873Z,2024
2018-05-19T05:31:34.224Z,2072
2018-05-19T05:32:14.680Z,2112
2018-05-19T05:32:55.208Z,2152
2018-05-19T05:33:35.485Z,2204
2018-05-19T05:34:15.959Z,2304
2018-05-19T05:34:56.332Z,2432
2018-05-19T05:35:36.769Z,2592
2018-05-19T05:36:17.337Z,3348
2018-05-19T05:36:57.682Z,4456
2018-05-19T05:37:38.137Z,4932
2018-05-19T05:38:18.532Z,5548
2018-05-19T05:38:58.975Z,5848
2018-05-19T05:39:39.378Z,4520
2018-05-19T05:40:19.774Z,3436
2018-05-19T05:41:00.215Z,2908
2018-05-19T05:43:14.291Z,2732
2018-05-19T05:43:54.857Z,2748
2018-05-19T05:44:35.274Z,2776
2018-05-19T05:45:15.722Z,2816
2018-05-19T05:45:56.152Z,2848
2018-05-19T05:46:36.532Z,2876
2018-05-19T05:47:16.944Z,2888
2018-05-19T05:47:57.383Z,2920
2018-05-19T05:48:37.755Z,2960
2018-05-19T05:49:18.230Z,3016
2018-05-19T05:49:58.656Z,3076
2018-05-19T05:50:39.121Z,3156
2018-05-19T05:51:19.482Z,3260
2018-05-19T05:51:59.929Z,3404
2018-05-19T05:52:40.346Z,3580
2018-05-19T05:53:20.769Z,3780
2018-05-19T05:54:01.208Z,3996
2018-05-19T05:54:41.598Z,4212
2018-05-19T05:55:22.121Z,4392
2018-05-19T05:57:43.189Z,4868
2018-05-19T05:58:22.035Z,5000
2018-05-19T05:59:02.377Z,4948
2018-05-19T05:59:42.853Z,5168
2018-05-19T06:00:23.256Z,5392
2018-05-19T06:01:03.709Z,5536
2018-05-19T06:01:44.269Z,5748
2018-05-19T06:02:24.652Z,5924
2018-05-19T06:03:05.095Z,6092
2018-05-19T06:03:45.523Z,6276
2018-05-19T06:04:25.919Z,6488
2018-05-19T06:05:06.327Z,6756
2018-05-19T06:05:46.729Z,7084
2018-05-19T06:06:27.167Z,7356
2018-05-19T06:07:07.541Z,7624
2018-05-19T06:07:47.952Z,8356
2018-05-19T06:08:28.370Z,15008
2018-05-19T06:09:08.786Z,18272
2018-05-19T06:09:49.186Z,17888
2018-05-19T06:10:29.624Z,16864
2018-05-19T06:11:10.065Z,15040
2018-05-19T06:11:50.506Z,15680
2018-05-19T06:12:30.905Z,13792
2018-05-19T06:13:11.325Z,16384
2018-05-19T06:13:51.783Z,16096
2018-05-19T06:14:32.182Z,16832
2018-05-19T06:15:12.571Z,17152
2018-05-19T06:15:52.983Z,18336
2018-05-19T06:20:21.839Z,22592
2018-05-19T06:21:02.261Z,21984
2018-05-19T06:21:42.689Z,22080
2018-05-19T06:22:23.118Z,21184
2018-05-19T06:23:03.505Z,19168
2018-05-19T06:23:43.906Z,19744
2018-05-19T06:24:24.264Z,19712
2018-05-19T06:25:04.849Z,20480
2018-05-19T06:25:45.098Z,20384
2018-05-19T06:26:25.548Z,19872
2018-05-19T06:27:05.982Z,19712
2018-05-19T06:27:46.436Z,20448
2018-05-19T06:28:26.868Z,19872
2018-05-19T06:30:49.503Z,11652
2018-05-19T06:31:27.113Z,11440
2018-05-19T06:32:07.617Z,12016
2018-05-19T06:32:47.902Z,13916
2018-05-19T06:33:28.329Z,12956
2018-05-19T06:34:08.804Z,11260
2018-05-19T06:34:49.204Z,10644
2018-05-19T06:35:29.589Z,11088
2018-05-19T06:36:10.012Z,11992
2018-05-19T06:36:50.393Z,9880
2018-05-19T06:37:30.776Z,9240
2018-05-19T06:38:11.246Z,8868
2018-05-19T06:38:51.638Z,8768
2018-05-19T06:39:32.075Z,8756
2018-05-19T06:40:12.458Z,8624
2018-05-19T06:40:52.873Z,8464
2018-05-19T06:41:33.315Z,8396
2018-05-19T06:42:13.746Z,8324
2018-05-19T06:42:54.221Z,9148
2018-05-19T06:43:34.681Z,10144
2018-05-19T06:44:15.012Z,13084
2018-05-19T06:44:55.438Z,13808
2018-05-19T06:45:35.914Z,13200
2018-05-19T06:46:16.271Z,12800
2018-05-19T06:46:56.702Z,10428
2018-05-19T06:47:37.137Z,13128
2018-05-19T06:48:17.619Z,12864
2018-05-19T06:48:57.978Z,12176
2018-05-19T06:49:38.458Z,11732
2018-05-19T06:50:18.925Z,11728
2018-05-19T06:50:59.298Z,9000
2018-05-19T06:51:39.737Z,10724
2018-05-19T06:52:20.175Z,10220
2018-05-19T06:53:00.593Z,10540
2018-05-19T06:53:41.054Z,11048
2018-05-19T06:54:21.459Z,10948
2018-05-19T06:55:01.894Z,11312
2018-05-19T06:55:42.279Z,10608
2018-05-19T06:56:22.763Z,10316
2018-05-19T06:57:03.202Z,9752
2018-05-19T06:57:43.592Z,7560
2018-05-19T06:58:23.985Z,5624
2018-05-19T06:59:04.458Z,4540
2018-05-19T06:59:45.150Z,4356
2018-05-19T07:00:25.391Z,4164
2018-05-19T07:01:05.852Z,4428
2018-05-19T07:01:46.235Z,4372
2018-05-19T07:02:26.661Z,4668
2018-05-19T07:03:07.112Z,4760
2018-05-19T07:03:47.505Z,4664
2018-05-19T07:04:28.114Z,4792
2018-05-19T07:05:08.385Z,4188
2018-05-19T07:05:48.791Z,3820
2018-05-19T07:06:29.317Z,3332
2018-05-19T07:07:10.128Z,3624
2018-05-19T07:07:50.446Z,3980
2018-05-19T07:08:30.854Z,3980
2018-05-19T07:09:11.240Z,3964
2018-05-19T07:09:51.651Z,4036
2018-05-19T07:10:32.082Z,3756
2018-05-19T07:11:12.557Z,3260
2018-05-19T07:11:53.004Z,3272
2018-05-19T07:12:33.444Z,3420
2018-05-19T07:13:13.848Z,3536
2018-05-19T07:13:54.345Z,3600
2018-05-19T07:14:34.745Z,4000
2018-05-19T07:15:15.153Z,4788
2018-05-19T07:15:55.532Z,5456
2018-05-19T07:16:35.955Z,6120
2018-05-19T07:17:16.380Z,6904
2018-05-19T07:17:56.788Z,7252
2018-05-19T07:20:16.135Z,7600
2018-05-19T07:20:57.383Z,6168
2018-05-19T07:21:37.829Z,5736
2018-05-19T07:22:18.258Z,5456
2018-05-19T07:22:58.695Z,5168
2018-05-19T07:23:39.165Z,4940
2018-05-19T07:24:19.676Z,5108
2018-05-19T07:25:00.100Z,5396
2018-05-19T07:25:40.498Z,5232
2018-05-19T07:26:20.953Z,4808
2018-05-19T07:27:02.196Z,4392
2018-05-19T07:27:42.792Z,4408
2018-05-19T07:28:23.232Z,4360
2018-05-19T07:29:03.816Z,3996
2018-05-19T07:29:44.556Z,3940
2018-05-19T07:30:25.259Z,3852
2018-05-19T07:31:06.144Z,4076
2018-05-19T07:31:46.618Z,4464
2018-05-19T07:32:27.058Z,5080
2018-05-19T07:33:07.425Z,5724
2018-05-19T07:33:47.863Z,6036
2018-05-19T07:34:28.253Z,6424
2018-05-19T07:35:08.747Z,7048
2018-05-19T07:37:30.950Z,6672
2018-05-19T07:38:11.727Z,6648
2018-05-19T07:38:54.552Z,6636
2018-05-19T07:39:38.318Z,6988
2018-05-19T07:40:23.145Z,6940
2018-05-19T07:41:03.317Z,6456
2018-05-19T07:41:45.374Z,6448
2018-05-19T07:42:25.893Z,6260
2018-05-19T07:43:06.348Z,6036
2018-05-19T07:43:47.333Z,5844
2018-05-19T07:44:28.224Z,5904
2018-05-19T07:45:13.611Z,5500
2018-05-19T07:46:07.091Z,5380
2018-05-19T07:46:52.377Z,5824
2018-05-19T07:47:33.540Z,6048
2018-05-19T07:48:17.500Z,6356
2018-05-19T07:48:58.497Z,6236
2018-05-19T07:49:38.558Z,6580
2018-05-19T07:50:20.703Z,6528
2018-05-19T07:51:05.029Z,6348
2018-05-19T07:51:45.610Z,5968
2018-05-19T07:52:29.671Z,5400
2018-05-19T07:53:13.448Z,4944
2018-05-19T07:53:54.676Z,4996
2018-05-19T07:54:35.539Z,5148
2018-05-19T07:55:16.507Z,5360
2018-05-19T07:55:59.935Z,5656
2018-05-19T07:56:40.931Z,5888
2018-05-19T07:57:21.834Z,6204
2018-05-19T07:58:02.262Z,6404
2018-05-19T07:58:46.563Z,6656
2018-05-19T07:59:28.825Z,6588
2018-05-19T08:00:10.944Z,6720
2018-05-19T08:00:51.785Z,6804
2018-05-19T08:01:32.258Z,6748
2018-05-19T08:02:13.019Z,6732
2018-05-19T08:02:53.471Z,6624
2018-05-19T08:03:33.961Z,6512
2018-05-19T08:04:16.387Z,6168
2018-05-19T08:04:57.159Z,5924
2018-05-19T08:05:37.578Z,5692
2018-05-19T08:06:18.472Z,5536
2018-05-19T08:06:59.141Z,5420
2018-05-19T08:07:41.461Z,5340
2018-05-19T08:08:22.313Z,5312
2018-05-19T08:09:03.043Z,5180
2018-05-19T08:09:43.566Z,4948
2018-05-19T08:10:27.255Z,4676
2018-05-19T08:11:07.858Z,4432
2018-05-19T08:11:49.840Z,4276
2018-05-19T08:12:30.485Z,4288
2018-05-19T08:13:14.331Z,4508
2018-05-19T08:13:54.893Z,4564
2018-05-19T08:14:38.802Z,4472
2018-05-19T08:15:22.032Z,4112
2018-05-19T08:16:02.480Z,3668
2018-05-19T08:16:43.194Z,3280
2018-05-19T08:17:27.414Z,2968
2018-05-19T08:18:11.616Z,2764
2018-05-19T08:18:52.107Z,2572
2018-05-19T08:19:35.046Z,2460
2018-05-19T08:20:17.605Z,2376
2018-05-19T08:23:00.140Z,2252
2018-05-19T08:23:43.841Z,2276
2018-05-19T08:24:23.843Z,2364
2018-05-19T08:25:04.381Z,2480
2018-05-19T08:25:46.283Z,2604
2018-05-19T08:28:16.442Z,2792
2018-05-19T08:33:24.218Z,4204
2018-05-19T08:34:04.145Z,4560
2018-05-19T08:34:45.508Z,4876
2018-05-19T08:35:26.320Z,5032
2018-05-19T08:36:08.735Z,4972
2018-05-19T08:36:49.648Z,5056
2018-05-19T08:37:30.210Z,4988
2018-05-19T08:38:11.005Z,4944
2018-05-19T08:38:51.620Z,4708
2018-05-19T08:39:32.731Z,4720
2018-05-19T08:40:13.568Z,4760
2018-05-19T08:40:54.296Z,4724
2018-05-19T08:41:35.400Z,4660
2018-05-19T08:42:16.110Z,4616
2018-05-19T08:42:56.604Z,4692
2018-05-19T08:43:37.431Z,4668
2018-05-19T08:44:17.966Z,4680
2018-05-19T08:45:01.005Z,4868
2018-05-19T08:45:44.761Z,4996
2018-05-19T08:46:25.244Z,5072
2018-05-19T08:47:06.023Z,5128
2018-05-19T08:47:46.678Z,5280
2018-05-19T08:48:27.785Z,5356
2018-05-19T08:49:08.291Z,5384
2018-05-19T08:49:48.665Z,5360
2018-05-19T08:50:29.297Z,5252
2018-05-19T08:51:13.437Z,5204
2018-05-19T08:51:54.575Z,5220
2018-05-19T08:52:35.048Z,5232
2018-05-19T08:53:16.467Z,5232
2018-05-19T08:53:56.615Z,5196
2018-05-19T08:54:39.219Z,5152
2018-05-19T08:55:19.525Z,5164
2018-05-19T08:56:00.691Z,5156
2018-05-19T08:56:42.261Z,5120
2018-05-19T08:57:22.595Z,5036
2018-05-19T08:58:04.521Z,4960
2018-05-19T08:58:45.485Z,4876
2018-05-19T08:59:27.614Z,4888
2018-05-19T09:00:08.424Z,4932
2018-05-19T09:00:48.832Z,5012
2018-05-19T09:01:29.243Z,5084
2018-05-19T09:02:10.024Z,5156
2018-05-19T09:02:50.793Z,5160
2018-05-19T09:03:31.344Z,5048
2018-05-19T09:04:11.709Z,4800
2018-05-19T09:04:52.622Z,4728
2018-05-19T09:05:33.075Z,4512
2018-05-19T09:06:14.020Z,4364
2018-05-19T09:06:54.773Z,4236
2018-05-19T09:07:36.570Z,4160
2018-05-19T09:08:17.272Z,4164
2018-05-19T09:08:57.706Z,4240
2018-05-19T09:09:39.512Z,4368
2018-05-19T09:10:20.028Z,4548
2018-05-19T09:11:00.448Z,4708
2018-05-19T09:11:40.923Z,4692
2018-05-19T09:12:21.617Z,4516
2018-05-19T09:13:01.990Z,4276
2018-05-19T09:13:42.887Z,4100
2018-05-19T09:14:23.355Z,4000
2018-05-19T09:15:07.666Z,3968
2018-05-19T09:15:49.137Z,3984
2018-05-19T09:16:29.517Z,4148
2018-05-19T09:17:10.100Z,4096
2018-05-19T09:17:50.399Z,4128
2018-05-19T09:18:31.076Z,4188
2018-05-19T09:19:11.834Z,4212
2018-05-19T09:19:52.285Z,4208
2018-05-19T09:20:32.800Z,4220
2018-05-19T09:21:14.788Z,4192
2018-05-19T09:21:55.072Z,4184
2018-05-19T09:22:38.463Z,4256
2018-05-19T09:23:18.935Z,4168
2018-05-19T09:23:59.247Z,4076
2018-05-19T09:24:40.065Z,4000
2018-05-19T09:25:21.035Z,3960
2018-05-19T09:26:01.523Z,3968
2018-05-19T09:26:47.581Z,4000
2018-05-19T09:27:27.952Z,3936
2018-05-19T09:28:10.202Z,3880
2018-05-19T09:28:51.424Z,3804
2018-05-19T09:29:32.075Z,3780
2018-05-19T09:30:13.661Z,3780
2018-05-19T09:30:56.762Z,3880
2018-05-19T09:31:39.069Z,4004
2018-05-19T09:32:19.458Z,3840
2018-05-19T09:33:00.938Z,3824
2018-05-19T09:33:41.496Z,3876
2018-05-19T09:34:22.655Z,3928
2018-05-19T09:35:03.283Z,3956
2018-05-19T09:35:43.933Z,3972
2018-05-19T09:36:24.327Z,3992
2018-05-19T09:37:04.720Z,4000
2018-05-19T09:37:46.180Z,4068
2018-05-19T09:38:27.119Z,3992
2018-05-19T09:39:10.769Z,3808
2018-05-19T09:39:51.331Z,3520
2018-05-19T09:40:32.331Z,3308
2018-05-19T09:44:35.716Z,2816
2018-05-19T09:45:15.443Z,2920
2018-05-19T09:45:57.491Z,3060
2018-05-19T09:46:37.715Z,3056
2018-05-19T09:47:18.313Z,3100
2018-05-19T09:48:00.165Z,3160
2018-05-19T09:48:40.525Z,3212
2018-05-19T09:49:21.383Z,3300
2018-05-19T09:50:06.806Z,3376
2018-05-19T09:50:44.946Z,3408
2018-05-19T09:51:25.490Z,3408
2018-05-19T09:52:05.902Z,3420
2018-05-19T09:52:46.343Z,3448
2018-05-19T09:53:26.715Z,3444
2018-05-19T09:54:07.681Z,3404
2018-05-19T09:54:48.717Z,3364
2018-05-19T09:55:28.488Z,3336
2018-05-19T09:56:09.333Z,3296
2018-05-19T09:56:49.778Z,3208
2018-05-19T09:57:32.153Z,3132
2018-05-19T09:58:12.362Z,3112
2018-05-19T09:58:52.993Z,3080
2018-05-19T09:59:34.284Z,3048
2018-05-19T10:00:17.527Z,3036
2018-05-19T10:00:57.952Z,3040
2018-05-19T10:01:39.489Z,3052
2018-05-19T10:03:55.037Z,2916
2018-05-19T10:04:37.234Z,2876
2018-05-19T10:44:55.791Z,3204
2018-05-19T10:45:37.522Z,3224
2018-05-19T10:46:17.823Z,3216
2018-05-19T10:46:58.224Z,3284
2018-05-19T10:47:40.970Z,3240
2018-05-19T10:48:21.831Z,2968
2018-05-19T10:49:02.698Z,2976
2018-05-19T10:49:43.394Z,2952
2018-05-19T10:50:23.651Z,2940
2018-05-19T10:51:04.093Z,2932
2018-05-19T10:51:44.573Z,2936
2018-05-19T10:52:25.035Z,2932
2018-05-19T10:53:05.429Z,2948
2018-05-19T10:53:45.796Z,2960
2018-05-19T10:54:26.268Z,2972
2018-05-19T10:55:06.678Z,2980
2018-05-19T10:55:47.094Z,2956
2018-05-19T10:56:27.558Z,2916
2018-05-19T10:57:08.074Z,2872
2018-05-19T10:57:48.456Z,2840
2018-05-19T10:58:28.934Z,2808
2018-05-19T10:59:09.937Z,2788
2018-05-19T10:59:50.203Z,2768
2018-05-19T11:00:30.632Z,2624
2018-05-19T11:01:11.020Z,2708
2018-05-19T11:01:51.453Z,2560
2018-05-19T11:02:31.876Z,2436
2018-05-19T11:03:12.364Z,2248
2018-05-19T11:03:53.039Z,2196
2018-05-19T11:04:33.407Z,2144
2018-05-19T11:05:14.166Z,2100
2018-05-19T11:05:55.307Z,2064
2018-05-19T11:06:35.942Z,2036
2018-05-19T11:07:16.652Z,2032
2018-05-19T11:07:56.923Z,2036
2018-05-19T11:08:38.042Z,2056
2018-05-19T11:09:18.873Z,2084
2018-05-19T11:10:01.474Z,2120
2018-05-19T11:10:42.365Z,2124
2018-05-19T11:11:25.805Z,2100
2018-05-19T11:12:06.274Z,2080
2018-05-19T11:12:46.669Z,2068
2018-05-19T11:13:27.831Z,2076
2018-05-19T11:14:08.386Z,2092
2018-05-19T11:14:49.318Z,2120
2018-05-19T11:15:30.265Z,2132
2018-05-19T11:16:10.432Z,2160
2018-05-19T11:16:51.038Z,2176
2018-05-19T11:17:31.724Z,2196
2018-05-19T11:18:12.196Z,2224
2018-05-19T11:18:52.598Z,2256